createdAt,value
2022-09-23T00:01:54.321Z,20.43
2022-09-23T00:06:57.015Z,24.05
2022-09-23T00:12:00.919Z,23.77
2022-09-23T00:17:03.506Z,23.50
2022-09-23T00:22:06.479Z,21.55
2022-09-23T00:27:10.067Z,27.47
2022-09-23T00:32:13.068Z,26.92
2022-09-23T00:37:16.907Z,25.60
2022-09-23T00:42:21.903Z,28.83
2022-09-23T00:47:38.486Z,23.58
2022-09-23T00:52:41.523Z,22.07
2022-09-23T00:57:46.317Z,24.15
2022-09-23T01:02:48.986Z,30.52
2022-09-23T01:07:51.912Z,26.95
2022-09-23T01:13:24.645Z,25.90
2022-09-23T01:18:49.129Z,25.23
2022-09-23T01:24:28.911Z,24.35
2022-09-23T01:29:37.308Z,24.48
2022-09-23T01:34:57.867Z,38.28
2022-09-23T01:40:11.316Z,23.10
2022-09-23T01:45:20.438Z,24.87
2022-09-23T01:50:51.163Z,26.83
2022-09-23T01:56:00.488Z,29.90
2022-09-23T02:01:07.346Z,22.23
2022-09-23T02:06:36.539Z,24.55
2022-09-23T02:11:46.312Z,26.27
2022-09-23T02:16:57.266Z,24.05
2022-09-23T02:22:15.884Z,24.40
2022-09-23T02:27:37.008Z,25.35
2022-09-23T02:33:15.642Z,25.70
2022-09-23T02:38:42.050Z,23.87
2022-09-23T02:43:48.821Z,27.48
2022-09-23T02:48:56.966Z,28.23
2022-09-23T02:53:59.743Z,22.15
2022-09-23T02:59:03.421Z,23.98
2022-09-23T03:04:27.258Z,23.10
2022-09-23T03:09:40.108Z,24.35
2022-09-23T03:15:00.838Z,24.65
2022-09-23T03:20:10.248Z,24.02
2022-09-23T03:25:18.278Z,26.73
2022-09-23T03:30:21.929Z,22.53
2022-09-23T03:35:26.609Z,24.77
2022-09-23T03:40:43.762Z,27.60
2022-09-23T03:45:47.318Z,25.77
2022-09-23T03:50:49.937Z,25.27
2022-09-23T03:55:52.532Z,24.77
2022-09-23T04:00:55.197Z,27.95
2022-09-23T04:05:59.904Z,24.25
2022-09-23T04:11:04.483Z,29.55
2022-09-23T04:16:07.304Z,38.00
2022-09-23T04:21:09.970Z,31.60
2022-09-23T04:26:13.369Z,30.83
2022-09-23T04:31:15.994Z,36.20
2022-09-23T04:36:18.599Z,34.15
2022-09-23T04:41:21.343Z,34.28
2022-09-23T04:46:24.640Z,34.70
2022-09-23T04:51:28.081Z,30.95
2022-09-23T04:56:34.210Z,36.15
2022-09-23T05:01:38.567Z,31.23
2022-09-23T05:06:44.186Z,35.53
2022-09-23T05:11:47.359Z,31.37
2022-09-23T05:16:50.014Z,36.50
2022-09-23T05:21:52.657Z,37.03
2022-09-23T05:26:56.439Z,42.17
2022-09-23T05:31:59.177Z,42.28
2022-09-23T05:37:01.830Z,46.43
2022-09-23T05:42:04.955Z,45.58
2022-09-23T05:47:07.872Z,39.95
2022-09-23T05:52:10.545Z,46.83
2022-09-23T05:57:13.204Z,38.30
2022-09-23T06:02:16.038Z,39.80
2022-09-23T06:07:19.157Z,38.78
2022-09-23T06:12:22.735Z,37.30
2022-09-23T06:17:25.485Z,46.05
2022-09-23T06:22:28.040Z,49.40
2022-09-23T06:27:31.991Z,39.63
2022-09-23T06:32:34.738Z,35.33
2022-09-23T06:37:37.461Z,39.67
2022-09-23T06:42:43.364Z,38.35
2022-09-23T06:47:47.400Z,35.75
2022-09-23T06:52:56.417Z,32.57
2022-09-23T06:57:59.474Z,38.28
2022-09-23T07:03:02.595Z,39.92
2022-09-23T07:08:12.134Z,39.65
2022-09-23T07:13:16.383Z,43.70
2022-09-23T07:18:20.520Z,39.17
2022-09-23T07:23:23.182Z,34.03
2022-09-23T07:28:28.238Z,32.00
2022-09-23T07:33:32.985Z,28.90
2022-09-23T07:38:38.696Z,32.25
2022-09-23T07:43:45.143Z,26.57
2022-09-23T07:48:48.097Z,25.67
2022-09-23T07:53:52.162Z,29.05
2022-09-23T07:59:01.970Z,27.80
2022-09-23T08:04:12.242Z,34.20
2022-09-23T08:09:16.604Z,35.67
2022-09-23T08:14:19.891Z,33.85
2022-09-23T08:19:22.614Z,30.23
2022-09-23T08:24:26.793Z,28.42
2022-09-23T08:29:29.515Z,27.00
2022-09-23T08:34:32.214Z,28.60
2022-09-23T08:39:35.058Z,30.10
2022-09-23T08:44:48.517Z,29.40
2022-09-23T08:49:58.059Z,24.67
2022-09-23T08:55:04.738Z,25.92
2022-09-23T09:00:14.661Z,18.10
2022-09-23T09:05:25.837Z,17.67
2022-09-23T09:10:38.062Z,19.33
2022-09-23T09:16:13.759Z,21.55
2022-09-23T09:21:16.539Z,18.35
2022-09-23T09:26:28.960Z,20.33
2022-09-23T09:31:48.696Z,19.55
2022-09-23T09:37:33.857Z,18.58
2022-09-23T09:42:41.769Z,14.13
2022-09-23T09:47:51.889Z,14.75
2022-09-23T09:53:24.104Z,12.67
2022-09-23T09:58:32.821Z,14.40
2022-09-23T10:03:41.692Z,13.27
2022-09-23T10:08:50.339Z,13.05
2022-09-23T10:14:17.778Z,14.70
2022-09-23T10:19:28.886Z,9.60
2022-09-23T10:24:34.596Z,10.75
2022-09-23T10:29:49.517Z,9.93
2022-09-23T10:35:14.199Z,9.48
2022-09-23T10:40:56.240Z,10.32
2022-09-23T10:46:23.015Z,11.93
2022-09-23T10:51:40.195Z,9.75
2022-09-23T10:57:40.856Z,10.38
2022-09-23T11:03:00.771Z,10.60
2022-09-23T11:08:18.533Z,9.52
2022-09-23T11:13:24.769Z,10.50
2022-09-23T11:18:43.932Z,11.15
2022-09-23T11:24:08.501Z,9.13
2022-09-23T11:29:29.661Z,10.60
2022-09-23T11:35:11.506Z,8.10
2022-09-23T11:40:23.690Z,8.80
2022-09-23T11:45:32.735Z,10.07
2022-09-23T11:50:40.588Z,9.98
2022-09-23T11:55:57.750Z,8.98
2022-09-23T12:01:14.922Z,8.10
2022-09-23T12:06:33.229Z,5.63
2022-09-23T12:12:05.590Z,7.40
2022-09-23T12:17:31.350Z,7.78
2022-09-23T12:22:54.612Z,6.55
2022-09-23T12:28:04.232Z,6.25
2022-09-23T12:33:30.652Z,6.60
2022-09-23T12:38:50.194Z,5.50
2022-09-23T12:44:13.785Z,7.93
2022-09-23T12:49:26.915Z,5.70
2022-09-23T12:54:30.274Z,7.25
2022-09-23T12:59:57.663Z,5.67
2022-09-23T13:05:26.858Z,6.65
2022-09-23T13:10:33.126Z,5.97
2022-09-23T13:15:37.307Z,6.53
2022-09-23T13:20:40.908Z,5.55
2022-09-23T13:25:44.258Z,6.70
2022-09-23T13:30:52.330Z,5.68
2022-09-23T13:36:01.819Z,5.95
2022-09-23T13:41:24.072Z,5.68
2022-09-23T13:46:30.290Z,7.65
2022-09-23T13:51:35.319Z,7.50
2022-09-23T13:56:48.851Z,6.72
2022-09-23T14:02:02.060Z,5.78
2022-09-23T14:07:07.273Z,6.80
2022-09-23T14:12:11.297Z,6.55
2022-09-23T14:17:19.734Z,7.13
2022-09-23T14:22:28.225Z,5.93
2022-09-23T14:27:32.960Z,5.80
2022-09-23T14:32:35.944Z,6.43
2022-09-23T14:37:56.983Z,5.22
2022-09-23T14:43:07.023Z,6.03
2022-09-23T14:48:16.618Z,7.32
2022-09-23T14:53:19.339Z,7.22
2022-09-23T14:58:25.967Z,16.88
2022-09-23T15:03:29.456Z,6.97
2022-09-23T15:08:34.108Z,6.07
2022-09-23T15:13:40.862Z,7.43
2022-09-23T15:18:46.501Z,7.00
2022-09-23T15:23:51.859Z,9.48
2022-09-23T15:28:58.622Z,7.22
2022-09-23T15:34:01.358Z,6.47
2022-09-23T15:39:06.524Z,7.47
2022-09-23T15:44:14.161Z,6.78
2022-09-23T15:49:39.436Z,6.47
2022-09-23T15:54:44.006Z,5.10
2022-09-23T15:59:46.797Z,7.57
2022-09-23T16:04:51.349Z,8.80
2022-09-23T16:09:55.025Z,9.80
2022-09-23T16:14:57.805Z,9.68
2022-09-23T16:20:00.992Z,8.30
2022-09-23T16:25:05.485Z,10.40
2022-09-23T16:30:08.868Z,7.28
2022-09-23T16:35:11.698Z,8.38
2022-09-23T16:40:18.486Z,7.53
2022-09-23T16:45:23.371Z,9.23
2022-09-23T16:50:26.328Z,9.23
2022-09-23T16:55:29.381Z,8.52
2022-09-23T17:00:50.348Z,10.88
2022-09-23T17:05:55.095Z,10.48
2022-09-23T17:10:59.680Z,10.35
2022-09-23T17:16:02.831Z,10.13
2022-09-23T17:21:07.940Z,10.75
2022-09-23T17:26:12.599Z,9.98
2022-09-23T17:31:15.445Z,10.60
2022-09-23T17:36:18.570Z,12.48
2022-09-23T17:41:22.032Z,11.40
2022-09-23T17:46:24.972Z,11.45
2022-09-23T17:51:27.886Z,12.18
2022-09-23T17:56:31.058Z,11.10
2022-09-23T18:01:35.323Z,13.95
2022-09-23T18:06:38.505Z,13.50
2022-09-23T18:11:43.452Z,12.18
2022-09-23T18:16:49.157Z,15.23
2022-09-23T18:21:54.852Z,13.55
2022-09-23T18:27:00.084Z,17.48
2022-09-23T18:32:04.069Z,14.30
2022-09-23T18:37:15.420Z,15.95
2022-09-23T18:42:19.705Z,18.40
2022-09-23T18:47:41.601Z,19.90
2022-09-23T18:52:44.311Z,19.08
2022-09-23T18:57:48.391Z,18.07
2022-09-23T19:02:52.729Z,20.98
2022-09-23T19:07:55.747Z,18.75
2022-09-23T19:12:58.584Z,25.38
2022-09-23T19:18:01.231Z,22.30
2022-09-23T19:23:03.969Z,19.83
2022-09-23T19:28:08.579Z,22.52
2022-09-23T19:33:11.401Z,18.13
2022-09-23T19:38:14.901Z,18.05
2022-09-23T19:43:18.379Z,23.00
2022-09-23T19:48:21.099Z,16.73
2022-09-23T19:53:28.032Z,17.95
2022-09-23T19:58:32.141Z,21.10
2022-09-23T20:03:34.898Z,19.98
2022-09-23T20:08:38.688Z,17.73
2022-09-23T20:13:44.242Z,18.07
2022-09-23T20:18:52.118Z,22.98
2022-09-23T20:23:54.860Z,20.85
2022-09-23T20:29:01.561Z,19.45
2022-09-23T20:34:06.208Z,18.17
2022-09-23T20:39:10.439Z,14.03
2022-09-23T20:44:14.589Z,17.67
2022-09-23T20:49:17.907Z,16.92
2022-09-23T20:54:22.150Z,16.85
2022-09-23T20:59:27.499Z,20.65
2022-09-23T21:04:30.782Z,17.00
2022-09-23T21:09:33.436Z,17.70
2022-09-23T21:14:36.210Z,15.10
2022-09-23T21:19:38.823Z,20.65
2022-09-23T21:25:16.027Z,22.77
2022-09-23T21:30:04.825Z,21.23
2022-09-23T21:35:07.670Z,24.05
2022-09-23T21:40:29.204Z,21.10
2022-09-23T21:45:32.328Z,24.55
2022-09-23T21:50:37.610Z,26.48
2022-09-23T21:55:40.359Z,21.67
2022-09-23T22:00:44.188Z,32.38
2022-09-23T22:05:47.027Z,27.40
2022-09-23T22:10:49.633Z,26.27
2022-09-23T22:15:52.764Z,23.08
2022-09-23T22:20:59.316Z,22.03
2022-09-23T22:26:03.369Z,22.45
2022-09-23T22:31:24.905Z,53.28
2022-09-23T22:36:27.592Z,22.10
2022-09-23T22:41:30.211Z,23.90
2022-09-23T22:46:34.821Z,31.83
2022-09-23T22:51:43.713Z,30.40
2022-09-23T22:56:46.270Z,27.88
2022-09-23T23:01:52.031Z,27.20
2022-09-23T23:06:54.762Z,22.75
2022-09-23T23:11:57.360Z,21.77
2022-09-23T23:16:59.984Z,27.85
2022-09-23T23:22:02.790Z,23.95
2022-09-23T23:27:05.586Z,21.33
2022-09-23T23:32:09.936Z,21.27
2022-09-23T23:37:12.562Z,21.93
2022-09-23T23:42:15.116Z,27.27
2022-09-23T23:47:17.711Z,22.38
2022-09-23T23:52:20.522Z,16.00
2022-09-23T23:57:23.130Z,18.70
